Terminal Aerodrome Forecast
Issued by NWS

Home | Current Version | Previous Version | Text Only | Print | Product List | Glossary On
Versions: 1 2 3 4 5 6 7 8 9 10 11 12 13 14 15 16
000
FTUS46 KMFR 282332
TAFOTH
TAF
KOTH 282332Z 2900/2924 36016G23KT P6SM SCT025
     FM290400 35012KT P6SM OVC020
     FM291000 01005KT P6SM OVC015
     FM292000 35010G21KT P6SM SCT030=

USA.gov is the U.S. government's official web portal to all federal, state and local government web resources and services.